Time;durP1;ratioP1;P1;durP2;ratioP2;P2;SDS_P1;SDS_P2;PMS_P1;PMS_P2;Temp;Humidity;BMP_temperature;BMP_pressure;BME280_temperature;BME280_humidity;BME280_pressure;Samples;Min_cycle;Max_cycle;Signal;HPM_P1;HPM_P2
2022/03/14 00:00:24;;;;;;;5.78;2.53;;;-1.40;1.40;;;-0.32;93.82;95441.89;647166;212;31427;-75
2022/03/14 00:03:07;;;;;;;6.22;3.58;;;-0.90;1.40;;;-0.14;95.64;95443.97;647219;216;31701;-75
2022/03/14 00:05:51;;;;;;;4.40;3.42;;;-0.70;1.40;;;-0.02;95.93;95451.77;646738;212;31565;-77
2022/03/14 00:08:32;;;;;;;2.12;1.92;;;-0.60;1.40;;;0.01;95.07;95462.23;652160;212;31620;-75
2022/03/14 00:11:20;;;;;;;1.75;1.65;;;-0.60;1.40;;;-0.02;91.84;95464.40;618124;226;31961;-72
2022/03/14 00:14:06;;;;;;;3.42;2.83;;;-0.80;1.40;;;0.06;94.80;95467.41;618780;222;31935;-73
2022/03/14 00:16:50;;;;;;;4.18;3.10;;;-0.60;1.40;;;0.04;98.05;95472.32;647772;216;31588;-75
2022/03/14 00:19:32;;;;;;;2.33;2.15;;;-0.40;1.40;;;0.10;94.42;95470.72;645535;212;31547;-75
2022/03/14 00:22:17;;;;;;;2.85;2.00;;;-0.50;1.40;;;0.15;94.35;95468.16;653073;212;31545;-75
2022/03/14 00:24:56;;;;;;;3.10;2.30;;;-0.40;1.40;;;0.00;92.10;95468.57;644654;216;31553;-75
2022/03/14 00:27:37;;;;;;;3.22;2.42;;;-0.60;1.40;;;-0.09;95.60;95467.13;649200;212;31581;-75
2022/03/14 00:30:22;;;;;;;3.25;2.05;;;-0.80;1.40;;;-0.04;98.81;95471.45;618681;222;31892;-74
2022/03/14 00:35:57;;;;;;;4.68;2.65;;;-0.30;1.40;;;0.29;95.35;95470.73;649243;216;31568;-75
2022/03/14 00:38:41;;;;;;;7.10;3.42;;;-0.10;1.40;;;0.50;93.46;95474.05;648591;216;31574;-72
2022/03/14 00:41:22;;;;;;;3.28;2.10;;;0.00;1.40;;;0.14;92.96;95474.95;647019;212;31891;-74
2022/03/14 00:44:04;;;;;;;3.25;2.12;;;-0.70;1.40;;;-0.25;94.16;95477.67;647252;216;31538;-73
2022/03/14 00:46:52;;;;;;;3.70;2.80;;;-1.10;1.40;;;-0.24;92.93;95479.65;646744;212;31560;-75
2022/03/14 00:49:40;;;;;;;6.80;2.67;;;-1.10;1.40;;;0.08;97.75;95481.66;651928;216;31750;-73
2022/03/14 00:52:24;;;;;;;3.85;2.80;;;-0.40;1.40;;;0.55;97.54;95480.70;644523;216;31588;-75
2022/03/14 00:55:06;;;;;;;3.87;3.53;;;0.40;1.40;;;0.91;94.33;95482.20;647674;216;31541;-72
2022/03/14 00:57:57;;;;;;;6.50;2.85;;;0.70;1.40;;;1.10;92.88;95489.19;650043;216;31562;-75
2022/03/14 01:00:39;;;;;;;5.75;2.80;;;0.80;1.40;;;1.15;90.06;95493.23;647487;212;31616;-75
2022/03/14 01:03:26;;;;;;;5.32;2.65;;;0.70;1.40;;;1.16;90.25;95496.98;646185;216;31593;-73
2022/03/14 01:06:14;;;;;;;2.95;2.42;;;0.60;1.40;;;1.14;90.82;95498.72;648370;216;31560;-75
2022/03/14 01:08:56;;;;;;;2.83;2.20;;;0.50;1.40;;;1.13;90.84;95501.58;650697;216;31535;-75
2022/03/14 01:11:44;;;;;;;6.60;3.10;;;0.50;1.40;;;1.19;90.29;95506.91;647621;216;31614;-73
2022/03/14 01:14:31;;;;;;;5.05;2.55;;;0.60;1.40;;;1.15;90.68;95509.42;647182;216;32342;-75
2022/03/14 01:17:13;;;;;;;3.80;3.42;;;0.50;1.40;;;1.13;90.67;95513.13;649355;216;32168;-74
2022/03/14 01:19:55;;;;;;;3.60;2.70;;;0.40;1.40;;;1.00;90.69;95518.18;646124;216;31571;-76
2022/03/14 01:22:36;;;;;;;2.00;1.90;;;0.20;1.40;;;0.95;92.07;95519.75;648503;212;31503;-75
2022/03/14 01:25:18;;;;;;;3.53;2.80;;;0.10;1.40;;;0.68;91.46;95523.68;651717;212;31566;-75
2022/03/14 01:28:02;;;;;;;2.42;2.22;;;-0.20;1.40;;;0.63;92.71;95528.61;649719;216;31704;-75
2022/03/14 01:30:43;;;;;;;2.80;2.22;;;-0.20;1.40;;;0.71;96.22;95535.73;627335;226;32067;-75
2022/03/14 01:35:52;;;;;;;3.72;2.10;;;0.30;1.40;;;1.17;93.43;95541.80;649148;216;31724;-75
2022/03/14 01:38:35;;;;;;;4.90;2.65;;;0.60;1.40;;;1.22;96.10;95529.06;648040;216;32911;-75
2022/03/14 01:41:19;;;;;;;4.30;2.47;;;0.80;1.40;;;1.45;92.49;95535.36;652830;216;31596;-75
2022/03/14 01:44:00;;;;;;;3.40;3.20;;;0.90;1.40;;;1.71;89.13;95549.51;649464;212;31584;-76
2022/03/14 01:46:42;;;;;;;2.70;2.30;;;1.00;1.40;;;1.65;90.82;95560.95;649994;212;31640;-74
2022/03/14 01:49:27;;;;;;;4.72;2.17;;;0.70;1.40;;;1.31;93.71;95554.22;646165;212;31577;-75
2022/03/14 01:52:08;;;;;;;5.30;2.75;;;0.40;1.40;;;1.45;92.37;95558.16;622473;222;32069;-75
2022/03/14 01:54:53;;;;;;;5.55;2.70;;;0.50;1.40;;;1.46;94.35;95557.28;645139;212;31558;-75
2022/03/14 01:57:36;;;;;;;2.55;2.17;;;0.40;1.40;;;1.64;93.13;95566.28;649577;216;31581;-75
2022/03/14 02:00:18;;;;;;;2.35;2.05;;;0.60;1.40;;;1.60;93.50;95577.44;654773;212;31524;-75
2022/03/14 02:03:00;;;;;;;3.22;2.75;;;0.50;1.40;;;1.79;90.97;95587.35;648095;216;31538;-75
2022/03/14 02:05:42;;;;;;;2.90;2.03;;;0.60;1.40;;;1.82;91.71;95599.31;648541;216;31737;-75
2022/03/14 02:08:23;;;;;;;2.25;1.92;;;0.70;1.40;;;1.75;93.11;95611.89;648451;216;31554;-75
2022/03/14 02:11:05;;;;;;;5.68;2.72;;;0.50;1.40;;;1.61;96.02;95619.77;645527;212;31613;-76
2022/03/14 02:13:49;;;;;;;5.80;2.78;;;0.60;1.40;;;1.63;96.35;95631.77;619536;226;31892;-75
2022/03/14 02:16:31;;;;;;;2.05;1.85;;;0.70;1.40;;;1.94;95.04;95638.33;648570;216;42186;-75
2022/03/14 02:19:13;;;;;;;3.58;2.55;;;1.20;1.40;;;1.97;96.68;95635.33;621354;222;42706;-75
2022/03/14 02:21:54;;;;;;;5.05;2.30;;;1.20;1.40;;;2.12;96.89;95629.35;618492;226;42527;-75
2022/03/14 02:24:36;;;;;;;3.35;2.33;;;1.50;1.40;;;2.83;92.51;95629.31;644858;216;31814;-74
2022/03/14 02:27:19;;;;;;;3.00;2.60;;;2.50;1.40;;;3.43;88.43;95628.58;646114;216;31881;-75
2022/03/14 02:29:59;;;;;;;3.10;2.23;;;3.20;1.40;;;4.27;83.91;95630.45;647095;212;31596;-75
2022/03/14 02:32:47;;;;;;;2.40;1.70;;;4.10;1.40;;;4.74;80.01;95629.62;648334;212;31567;-74
2022/03/14 02:35:51;;;;;;;3.00;2.30;;;4.50;1.40;;;4.99;78.07;95635.91;648813;216;31550;-75
2022/03/14 02:38:33;;;;;;;2.60;2.20;;;4.60;1.40;;;4.95;79.36;95635.36;646349;216;31610;-75
2022/03/14 02:41:14;;;;;;;3.42;2.85;;;4.30;1.40;;;5.29;77.79;95635.65;624812;226;31920;-74
2022/03/14 02:45:05;;;;;;;4.60;2.62;;;4.90;1.40;;;5.46;77.41;95645.32;647755;212;32261;-75
2022/03/14 02:47:47;;;;;;;4.40;3.30;;;4.90;1.40;;;5.64;76.59;95648.05;620504;226;42799;-73
2022/03/14 02:50:29;;;;;;;3.92;3.15;;;5.20;1.40;;;5.98;74.85;95653.30;648340;212;42292;-76
2022/03/14 02:53:11;;;;;;;3.35;2.47;;;5.60;1.40;;;6.10;74.83;95663.41;619797;226;32037;-75
2022/03/14 02:55:52;;;;;;;1.83;1.73;;;5.50;1.40;;;6.39;74.05;95672.73;646540;216;31590;-75
2022/03/14 02:58:38;;;;;;;2.60;2.10;;;5.90;1.40;;;7.11;72.82;95672.75;647474;212;31601;-75
2022/03/14 03:01:16;;;;;;;3.12;1.90;;;6.70;1.40;;;7.68;72.63;95680.37;652663;212;31660;-74
2022/03/14 03:03:58;;;;;;;4.97;2.40;;;7.30;1.40;;;8.05;72.10;95695.87;622449;222;32230;-74
2022/03/14 03:06:42;;;;;;;3.20;2.25;;;7.50;1.40;;;7.96;72.60;95694.23;644610;216;31590;-74
2022/03/14 03:09:30;;;;;;;4.00;2.30;;;7.50;1.40;;;8.06;72.62;95704.50;650699;216;31535;-75
2022/03/14 03:12:14;;;;;;;3.87;2.97;;;7.40;1.40;;;8.08;72.66;95710.42;647025;216;31624;-75
2022/03/14 03:14:53;;;;;;;3.95;2.53;;;7.50;1.40;;;8.13;72.49;95719.23;649798;216;32145;-75
2022/03/14 03:17:34;;;;;;;3.20;2.62;;;7.50;1.40;;;8.04;73.33;95727.84;651796;216;31591;-75
2022/03/14 03:20:16;;;;;;;3.90;2.60;;;7.40;1.40;;;8.00;74.17;95728.36;630265;222;32370;-75
2022/03/14 03:22:57;;;;;;;3.20;2.28;;;7.40;1.40;;;8.03;75.65;95737.78;622198;226;43236;-75
2022/03/14 03:25:39;;;;;;;3.25;2.05;;;7.50;1.40;;;8.19;76.14;95748.81;650966;212;32126;-74
2022/03/14 03:30:55;;;;;;;5.05;2.28;;;7.70;1.40;;;8.33;78.61;95763.23;650358;212;42180;-74
2022/03/14 03:35:58;;;;;;;4.05;3.45;;;7.80;1.40;;;8.35;79.69;95776.17;644183;212;31603;-75
2022/03/14 03:38:39;;;;;;;3.17;2.28;;;7.80;1.40;;;8.49;80.77;95778.83;649613;216;42187;-75
2022/03/14 03:41:20;;;;;;;4.80;3.12;;;7.90;1.40;;;8.49;82.26;95796.06;651103;216;42244;-75
2022/03/14 03:44:02;;;;;;;5.87;2.65;;;7.90;1.40;;;8.56;83.50;95792.42;646920;216;42557;-74
2022/03/14 03:46:44;;;;;;;4.50;3.10;;;8.10;1.40;;;8.79;83.87;95809.48;651124;216;42119;-76
2022/03/14 03:49:26;;;;;;;2.90;2.62;;;8.20;1.40;;;8.77;84.19;95806.70;648872;216;42205;-76
2022/03/14 03:52:08;;;;;;;3.95;3.05;;;8.20;1.40;;;8.53;85.88;95819.66;651950;216;31544;-76
2022/03/14 03:54:49;;;;;;;5.50;3.05;;;7.90;1.40;;;8.71;86.77;95835.16;619397;226;31970;-76
2022/03/14 03:57:31;;;;;;;5.78;3.80;;;8.10;1.40;;;8.64;87.29;95839.05;653434;216;31680;-76
2022/03/14 04:00:14;;;;;;;5.50;2.90;;;8.00;1.40;;;8.58;88.60;95859.05;644588;216;42311;-76
2022/03/14 04:02:55;;;;;;;3.78;3.25;;;8.00;1.40;;;8.44;90.21;95860.58;650358;216;31932;-75
2022/03/14 04:05:39;;;;;;;3.78;3.22;;;7.80;1.40;;;8.54;91.00;95849.31;622473;226;42616;-76
2022/03/14 04:08:21;;;;;;;2.92;2.35;;;7.90;1.40;;;8.45;92.15;95854.25;648022;216;32312;-74
2022/03/14 04:11:02;;;;;;;5.30;3.47;;;7.80;1.40;;;8.44;93.71;95866.47;650638;212;32171;-76
2022/03/14 04:13:42;;;;;;;4.35;3.33;;;7.80;1.40;;;8.49;94.70;95887.41;651121;212;31614;-76
2022/03/14 04:16:30;;;;;;;4.32;3.92;;;7.90;1.40;;;8.47;95.16;95891.09;620939;226;42571;-75
2022/03/14 04:19:18;;;;;;;3.45;3.03;;;8.00;1.40;;;8.54;94.44;95887.53;646385;216;32081;-76
2022/03/14 04:22:04;;;;;;;4.35;3.85;;;8.00;1.40;;;8.41;95.00;95891.08;625069;222;31915;-76
2022/03/14 04:24:59;;;;;;;4.65;3.67;;;7.70;1.40;;;8.37;95.62;95897.20;642047;220;31532;-76
2022/03/14 04:27:52;;;;;;;3.87;2.90;;;7.70;1.40;;;8.22;97.06;95894.86;624306;222;32105;-76
2022/03/14 04:30:41;;;;;;;6.03;3.53;;;7.60;1.40;;;8.24;97.74;95897.77;633558;217;42351;-76
2022/03/14 04:35:51;;;;;;;4.93;3.05;;;7.50;1.40;;;8.07;100.00;95914.08;651046;216;31572;-76
2022/03/14 04:38:33;;;;;;;5.93;3.78;;;7.40;1.40;;;8.04;100.00;95924.84;650148;216;31568;-75
2022/03/14 04:41:21;;;;;;;7.87;3.30;;;7.40;1.40;;;7.97;100.00;95929.70;648729;212;42152;-75
2022/03/14 04:44:06;;;;;;;6.37;3.90;;;7.30;1.40;;;7.94;100.00;95940.40;620172;222;32623;-77
2022/03/14 04:46:53;;;;;;;4.80;3.28;;;7.30;1.40;;;7.79;100.00;95943.71;618851;222;31932;-75
2022/03/14 04:49:35;;;;;;;5.50;2.75;;;7.10;1.40;;;7.75;100.00;95963.42;647841;216;31574;-75
2022/03/14 04:52:17;;;;;;;4.00;2.60;;;7.20;1.40;;;7.80;100.00;95977.34;646111;216;42177;-75
2022/03/14 04:54:59;;;;;;;3.35;3.05;;;7.20;1.40;;;7.81;100.00;95981.52;651307;216;42168;-75
2022/03/14 04:57:42;;;;;;;4.68;2.97;;;7.20;1.40;;;7.80;100.00;95993.27;646721;212;31614;-77
2022/03/14 05:00:26;;;;;;;4.80;3.12;;;7.10;1.40;;;7.78;100.00;95995.43;646742;212;31825;-76
2022/03/14 05:03:17;;;;;;;3.60;2.60;;;7.10;1.40;;;7.93;100.00;95998.39;647016;212;32102;-76
2022/03/14 05:06:05;;;;;;;4.20;2.80;;;7.30;1.40;;;8.01;100.00;95999.64;647591;212;32079;-76
2022/03/14 05:08:50;;;;;;;2.45;1.95;;;7.40;1.40;;;8.04;100.00;96001.09;647674;212;31737;-76
2022/03/14 05:11:32;;;;;;;2.30;1.80;;;7.50;1.40;;;8.00;100.00;96016.16;649943;216;43304;-76
2022/03/14 05:14:17;;;;;;;2.85;2.45;;;7.30;1.40;;;8.14;100.00;96030.27;654345;212;42080;-75
2022/03/14 05:17:03;;;;;;;1.98;1.77;;;7.50;1.40;;;8.13;100.00;96039.41;649731;212;42179;-75
2022/03/14 05:19:47;;;;;;;3.35;2.10;;;7.50;1.40;;;8.06;100.00;96046.02;648116;212;31587;-76
2022/03/14 05:22:29;;;;;;;1.30;1.20;;;7.40;1.40;;;8.17;100.00;96046.30;619001;226;42682;-74
2022/03/14 05:25:14;;;;;;;1.80;1.30;;;7.60;1.40;;;8.11;100.00;96051.02;652935;216;42192;-76
2022/03/14 05:27:56;;;;;;;3.20;1.80;;;7.50;1.40;;;8.12;100.00;96052.09;635052;222;31670;-75
2022/03/14 05:30:37;;;;;;;2.50;2.30;;;7.50;1.40;;;8.09;100.00;96065.66;647287;212;32124;-76
2022/03/14 05:35:51;;;;;;;1.65;1.52;;;7.50;1.40;;;8.11;100.00;96075.48;625883;225;31874;-76
2022/03/14 05:38:33;;;;;;;1.83;1.10;;;7.40;1.40;;;8.12;100.00;96071.00;622211;226;32053;-75
2022/03/14 05:41:17;;;;;;;1.55;1.45;;;7.50;1.40;;;8.05;100.00;96076.04;645744;212;42162;-76
2022/03/14 05:44:00;;;;;;;1.30;1.20;;;7.40;1.40;;;8.02;100.00;96087.33;623218;222;42550;-76
2022/03/14 05:46:44;;;;;;;3.47;2.10;;;7.30;1.40;;;7.97;100.00;96092.44;647319;212;31562;-76
2022/03/14 05:49:31;;;;;;;2.87;1.60;;;7.20;1.40;;;7.91;100.00;96097.91;623591;222;31907;-75
2022/03/14 05:52:19;;;;;;;1.55;1.10;;;7.20;1.40;;;7.87;100.00;96106.33;619310;222;31884;-76
2022/03/14 05:55:02;;;;;;;2.30;1.30;;;7.20;1.40;;;7.90;100.00;96108.00;635224;221;31652;-76
2022/03/14 05:57:44;;;;;;;1.20;1.00;;;7.20;1.40;;;8.02;100.00;96113.31;620084;226;32146;-76
2022/03/14 06:00:32;;;;;;;1.70;1.60;;;7.40;1.40;;;8.20;100.00;96112.55;646083;215;31661;-76
2022/03/14 06:03:20;;;;;;;1.90;1.30;;;7.50;1.40;;;8.22;100.00;96122.55;646035;216;32149;-75
2022/03/14 06:06:02;;;;;;;1.98;1.35;;;7.50;1.40;;;8.20;100.00;96126.98;647041;212;31567;-75
2022/03/14 06:09:06;;;;;;;1.90;1.40;;;7.50;1.40;;;8.12;100.00;96139.81;650830;212;31521;-76
2022/03/14 06:11:50;;;;;;;1.42;1.27;;;7.50;1.40;;;8.21;100.00;96146.64;649966;216;42140;-75
2022/03/14 06:14:32;;;;;;;3.05;0.90;;;7.50;1.40;;;8.19;100.00;96148.69;619165;225;42528;-75
2022/03/14 06:17:14;;;;;;;1.20;1.10;;;7.50;1.40;;;8.14;100.00;96150.83;632546;218;42422;-75
2022/03/14 06:19:59;;;;;;;1.67;1.10;;;7.50;1.40;;;8.12;100.00;96163.31;630083;217;42366;-75
2022/03/14 06:22:41;;;;;;;1.50;1.20;;;7.40;1.40;;;8.16;100.00;96171.62;619057;225;32566;-76
2022/03/14 06:25:33;;;;;;;1.20;1.10;;;7.50;1.40;;;8.23;100.00;96177.91;650127;212;31543;-77
2022/03/14 06:28:18;;;;;;;1.50;1.00;;;7.60;1.40;;;8.39;100.00;96187.46;643069;214;31667;-76
2022/03/14 06:31:10;;;;;;;1.25;1.15;;;7.70;1.40;;;8.49;100.00;96188.20;622173;224;31977;-76
2022/03/14 06:35:56;;;;;;;2.83;0.80;;;7.80;1.40;;;8.61;100.00;96199.13;653123;216;31566;-76
2022/03/14 06:38:46;;;;;;;0.90;0.70;;;7.90;1.40;;;8.62;100.00;96201.61;617524;226;31883;-75
2022/03/14 06:52:14;;;;;;;1.30;0.90;;;8.20;1.40;;;8.94;100.00;96207.75;647541;216;31500;-76
2022/03/14 06:54:59;;;;;;;1.05;0.80;;;8.30;1.40;;;8.98;100.00;96211.84;649227;216;31748;-77
2022/03/14 06:57:40;;;;;;;0.95;0.77;;;8.30;1.40;;;9.08;100.00;96212.94;648613;216;32134;-77
2022/03/14 07:00:26;;;;;;;0.62;0.60;;;8.50;1.40;;;9.31;100.00;96203.81;646255;216;42103;-76
2022/03/14 07:13:41;;;;;;;1.30;0.80;;;8.80;1.40;;;9.44;100.00;96222.20;646911;216;42239;-77
2022/03/14 07:16:28;;;;;;;1.00;1.00;;;8.80;1.40;;;9.53;100.00;96227.39;618947;226;31866;-78
2022/03/14 07:19:17;;;;;;;1.60;1.00;;;8.80;1.40;;;9.55;100.00;96230.46;645572;217;31598;-77
2022/03/14 07:22:09;;;;;;;1.33;0.90;;;8.90;1.40;;;9.52;100.00;96233.73;619997;222;33350;-76
2022/03/14 07:24:59;;;;;;;1.90;1.00;;;8.70;1.40;;;9.33;100.00;96235.63;623542;222;31863;-77
2022/03/14 07:27:41;;;;;;;1.60;1.10;;;8.60;1.40;;;9.37;100.00;96248.27;648356;216;31593;-78
2022/03/14 07:30:24;;;;;;;0.80;0.80;;;8.70;1.40;;;9.47;100.00;96245.47;648857;216;42151;-77
2022/03/14 07:35:52;;;;;;;0.70;0.70;;;9.00;1.40;;;9.77;100.00;96243.20;647116;216;31545;-77
2022/03/14 07:38:34;;;;;;;0.80;0.70;;;9.10;1.40;;;9.79;100.00;96248.88;650909;216;31575;-77
2022/03/14 07:41:15;;;;;;;1.10;0.50;;;9.20;1.40;;;10.02;100.00;96258.41;618641;226;32100;-78
2022/03/14 07:44:00;;;;;;;0.60;0.50;;;9.40;1.40;;;10.18;97.34;96254.75;647142;216;31602;-79
2022/03/14 07:46:39;;;;;;;0.70;0.50;;;9.60;1.40;;;10.32;94.99;96258.28;620344;226;31841;-78
2022/03/14 07:49:21;;;;;;;0.62;0.40;;;9.70;1.40;;;10.30;93.00;96265.83;646742;212;31485;-76
2022/03/14 07:52:06;;;;;;;0.70;0.70;;;9.50;1.40;;;10.25;93.67;96279.91;651081;216;32704;-78
2022/03/14 07:54:48;;;;;;;0.90;0.50;;;9.50;1.40;;;10.09;92.46;96270.09;649269;212;31501;-78
2022/03/14 07:57:32;;;;;;;0.60;0.40;;;9.40;1.40;;;10.15;92.82;96275.30;624058;226;32118;-77
2022/03/14 08:00:18;;;;;;;0.70;0.47;;;9.40;1.40;;;9.93;94.49;96275.09;619759;226;31874;-77
2022/03/14 08:03:02;;;;;;;0.70;0.40;;;9.20;1.40;;;9.85;94.30;96272.19;647225;212;31471;-76
2022/03/14 08:05:46;;;;;;;0.50;0.40;;;9.10;1.40;;;10.00;96.00;96286.27;654341;212;31471;-78
2022/03/14 08:08:30;;;;;;;0.80;0.80;;;9.50;1.40;;;10.48;92.69;96280.79;644770;212;31489;-76
2022/03/14 08:11:12;;;;;;;0.53;0.40;;;9.90;1.40;;;10.86;90.29;96282.53;647976;214;31490;-76
2022/03/14 08:13:53;;;;;;;0.70;0.60;;;10.20;1.40;;;10.84;88.69;96298.16;620058;222;31828;-78
2022/03/14 08:16:36;;;;;;;0.63;0.50;;;10.20;1.40;;;10.99;89.99;96295.29;649593;212;31473;-78
2022/03/14 08:19:18;;;;;;;0.70;0.40;;;10.40;1.40;;;11.04;88.68;96291.76;646460;216;31632;-78
2022/03/14 08:22:01;;;;;;;0.80;0.40;;;10.50;1.40;;;10.84;87.30;96308.63;622750;222;31925;-76
2022/03/14 08:24:45;;;;;;;0.50;0.30;;;10.10;1.40;;;11.04;88.44;96302.67;619302;222;31861;-76
2022/03/14 08:27:26;;;;;;;0.60;0.50;;;10.40;1.40;;;11.01;89.00;96307.09;647386;212;31841;-76
2022/03/14 08:30:08;;;;;;;0.40;0.30;;;10.30;1.40;;;10.61;89.25;96318.84;646906;212;31600;-76
2022/03/14 08:33:00;;;;;;;0.70;0.40;;;10.10;1.40;;;10.77;90.57;96320.44;647291;213;31510;-76
2022/03/14 08:35:54;;;;;;;0.52;0.32;;;10.10;1.40;;;10.68;91.10;96324.91;647934;212;31512;-77
2022/03/14 08:38:37;;;;;;;0.60;0.40;;;10.00;1.40;;;10.35;91.04;96328.35;646936;212;32072;-77
2022/03/14 08:41:19;;;;;;;0.40;0.30;;;9.70;1.40;;;10.70;91.75;96332.11;646711;216;31596;-77
2022/03/14 08:44:07;;;;;;;0.70;0.40;;;10.10;1.40;;;10.84;88.47;96336.80;642641;216;42036;-76
2022/03/14 08:47:05;;;;;;;0.50;0.33;;;10.10;1.40;;;10.67;87.91;96324.97;619297;221;31816;-75
2022/03/14 08:49:47;;;;;;;0.70;0.60;;;10.00;1.40;;;10.63;86.53;96344.97;618609;226;31830;-78
2022/03/14 08:52:29;;;;;;;0.43;0.30;;;10.00;1.40;;;10.66;87.50;96336.75;646899;212;32183;-78
2022/03/14 08:55:12;;;;;;;1.10;0.80;;;10.10;1.40;;;10.85;87.50;96336.52;621115;222;42463;-77
2022/03/14 08:57:54;;;;;;;0.47;0.35;;;10.30;1.40;;;10.80;87.02;96342.80;620586;226;31846;-78
2022/03/14 09:00:36;;;;;;;1.10;0.80;;;10.20;1.40;;;10.89;86.67;96340.92;651982;212;24209;-77
2022/03/14 09:03:19;;;;;;;0.40;0.30;;;10.40;1.40;;;11.11;86.35;96336.73;618305;226;31844;-78
2022/03/14 09:06:05;;;;;;;0.60;0.40;;;10.70;1.40;;;11.48;84.83;96332.84;648108;212;31469;-78
2022/03/14 09:08:49;;;;;;;0.50;0.47;;;11.10;1.40;;;12.53;80.38;96329.21;646552;216;31595;-76
2022/03/14 09:22:01;;;;;;;0.70;0.50;;;16.70;1.40;;;16.74;58.52;96344.99;648330;216;31630;-77
2022/03/14 09:24:49;;;;;;;0.53;0.43;;;16.80;1.40;;;16.31;58.00;96348.58;647835;212;31709;-78
2022/03/14 09:27:31;;;;;;;0.60;0.40;;;16.80;1.40;;;17.04;56.46;96349.09;648459;216;31488;-78
2022/03/14 09:32:49;;;;;;;0.73;0.47;;;17.70;1.40;;;16.83;55.91;96340.85;645819;216;31500;-76
2022/03/14 09:35:51;;;;;;;0.57;0.40;;;17.20;1.40;;;17.61;53.86;96345.27;646241;212;32539;-76
2022/03/14 09:38:33;;;;;;;0.60;0.40;;;17.70;1.40;;;17.55;54.50;96347.73;620658;222;31942;-76
2022/03/14 09:41:15;;;;;;;0.60;0.50;;;17.80;1.40;;;17.92;53.08;96350.11;646799;216;31480;-76
2022/03/14 09:43:57;;;;;;;1.37;0.50;;;17.70;1.40;;;19.53;49.75;96345.74;648537;216;31494;-76
2022/03/14 09:46:39;;;;;;;0.50;0.30;;;18.50;1.40;;;18.38;48.28;96361.16;619613;226;31842;-79
2022/03/14 09:49:21;;;;;;;0.93;0.30;;;16.90;1.40;;;16.80;51.40;96350.72;648022;216;42620;-75
2022/03/14 09:52:06;;;;;;;0.57;0.30;;;17.00;1.40;;;16.39;53.32;96351.24;646923;212;33844;-76
2022/03/14 09:54:47;;;;;;;0.60;0.32;;;15.60;1.40;;;16.72;51.85;96346.45;649131;212;31468;-75
2022/03/14 09:57:29;;;;;;;0.47;0.30;;;15.10;1.40;;;16.15;53.27;96356.92;647785;216;31471;-77
2022/03/14 10:00:14;;;;;;;4.40;0.70;;;16.20;1.40;;;16.08;53.64;96360.34;620296;225;43047;-78
2022/03/14 10:02:59;;;;;;;0.50;0.40;;;15.30;1.40;;;14.83;55.55;96364.59;619061;226;31808;-76
2022/03/14 10:05:40;;;;;;;0.55;0.50;;;14.70;1.40;;;15.48;54.35;96367.18;619642;226;31821;-76
2022/03/14 10:08:24;;;;;;;0.60;0.40;;;13.60;1.40;;;16.85;52.99;96358.81;647557;216;31509;-77
2022/03/14 10:11:06;;;;;;;0.40;0.30;;;17.60;1.40;;;16.42;52.28;96363.02;620332;226;32156;-77
2022/03/14 10:13:56;;;;;;;0.60;0.40;;;16.90;1.40;;;15.63;52.75;96369.27;647390;216;42193;-76
2022/03/14 10:16:38;;;;;;;0.90;0.40;;;13.60;1.40;;;16.16;52.89;96365.47;619742;226;31810;-76
2022/03/14 10:19:30;;;;;;;0.70;0.40;;;16.80;1.40;;;17.29;50.48;96360.29;647430;216;31596;-76
2022/03/14 10:22:14;;;;;;;0.90;0.50;;;17.50;1.40;;;18.24;49.65;96360.52;631574;222;31760;-77
2022/03/14 10:24:56;;;;;;;2.60;0.70;;;18.90;1.40;;;17.97;48.32;96369.55;647755;216;42150;-77
2022/03/14 10:27:38;;;;;;;0.70;0.60;;;17.80;1.40;;;17.29;49.58;96376.69;648568;212;31584;-78
2022/03/14 10:30:25;;;;;;;0.90;0.52;;;17.50;1.40;;;17.80;48.57;96380.86;648897;216;31473;-79
2022/03/14 10:35:55;;;;;;;0.70;0.37;;;17.90;1.40;;;18.90;44.69;96374.35;619993;222;31854;-76
2022/03/14 10:38:37;;;;;;;0.50;0.30;;;18.50;1.40;;;18.07;45.27;96375.34;646817;216;31571;-76
2022/03/14 10:41:18;;;;;;;0.50;0.30;;;17.90;1.40;;;17.39;46.41;96376.85;648157;216;31707;-76
2022/03/14 10:44:02;;;;;;;0.52;0.40;;;17.40;1.40;;;19.35;44.09;96362.50;619820;226;31832;-76
2022/03/14 10:46:44;;;;;;;0.40;0.37;;;19.50;1.40;;;19.46;43.45;96359.95;646301;212;31589;-76
2022/03/14 10:49:32;;;;;;;1.10;0.50;;;18.90;1.40;;;19.97;43.57;96359.22;647270;216;31707;-76
2022/03/14 10:52:15;;;;;;;0.50;0.40;;;19.30;1.40;;;19.15;43.77;96372.45;647547;216;31472;-77
2022/03/14 10:54:57;;;;;;;0.60;0.60;;;18.00;1.40;;;18.22;45.28;96379.36;619915;222;31812;-76
2022/03/14 10:57:38;;;;;;;0.57;0.45;;;15.80;1.40;;;16.54;48.68;96381.94;619947;222;32465;-76
2022/03/14 11:00:20;;;;;;;0.70;0.50;;;14.10;1.40;;;14.51;52.82;96400.23;648308;212;32237;-77
2022/03/14 11:03:03;;;;;;;0.62;0.40;;;13.20;1.40;;;16.18;50.43;96386.73;646915;212;31604;-77
2022/03/14 11:05:47;;;;;;;0.50;0.40;;;16.00;1.40;;;17.91;46.42;96395.16;647395;212;31459;-76
2022/03/14 11:08:33;;;;;;;0.73;0.40;;;16.90;1.40;;;18.82;44.91;96396.73;648578;212;42107;-78
2022/03/14 11:13:57;;;;;;;0.67;0.50;;;16.50;1.40;;;18.26;44.19;96399.48;647113;215;31593;-76
2022/03/14 11:16:39;;;;;;;0.60;0.40;;;16.20;1.40;;;17.88;45.51;96402.34;648190;216;31507;-76
2022/03/14 11:19:23;;;;;;;0.70;0.60;;;16.00;1.40;;;16.49;47.68;96393.14;631809;218;31575;-76
2022/03/14 11:22:07;;;;;;;0.50;0.30;;;14.80;1.40;;;18.25;45.28;96390.19;647349;216;31799;-76
2022/03/14 11:24:51;;;;;;;0.80;0.50;;;17.40;1.40;;;20.26;41.83;96374.92;647059;216;31545;-77
2022/03/14 11:27:35;;;;;;;1.30;0.40;;;20.20;1.40;;;22.26;38.09;96359.59;647053;212;31461;-75
2022/03/14 11:30:16;;;;;;;0.60;0.40;;;20.70;1.40;;;22.11;39.08;96372.19;619717;226;32181;-77
2022/03/14 11:33:01;;;;;;;0.70;0.50;;;20.20;1.40;;;22.03;37.93;96370.11;648247;212;31505;-76
2022/03/14 11:38:29;;;;;;;0.70;0.52;;;21.50;1.40;;;21.38;36.75;96368.80;647915;216;31494;-79
2022/03/14 11:41:13;;;;;;;0.80;0.60;;;19.20;1.40;;;23.53;34.16;96356.88;645355;216;32137;-77
2022/03/14 11:43:54;;;;;;;0.90;0.50;;;20.60;1.40;;;23.05;34.74;96357.41;645962;216;31606;-77
2022/03/14 11:46:43;;;;;;;1.10;0.60;;;20.10;1.40;;;21.95;35.16;96363.67;647266;213;31676;-77
2022/03/14 11:52:07;;;;;;;1.80;0.57;;;19.20;1.40;;;20.63;37.79;96366.43;647227;212;31572;-76
2022/03/14 11:54:52;;;;;;;0.60;0.47;;;18.70;1.40;;;21.10;37.56;96362.06;620843;222;32016;-78
2022/03/14 11:57:39;;;;;;;0.50;0.40;;;17.50;1.40;;;21.99;36.16;96356.80;647291;216;31517;-76
2022/03/14 12:00:39;;;;;;;0.40;0.30;;;20.00;1.40;;;20.55;37.10;96358.52;647391;216;42689;-75
2022/03/14 12:03:37;;;;;;;0.50;0.40;;;18.50;1.40;;;21.57;36.52;96349.39;620602;226;31828;-77
2022/03/14 12:06:18;;;;;;;0.57;0.47;;;20.80;1.40;;;20.60;36.56;96363.52;644896;212;42303;-76
2022/03/14 12:09:03;;;;;;;0.70;0.50;;;17.60;1.40;;;19.43;39.37;96364.15;647676;216;31482;-77
2022/03/14 12:11:46;;;;;;;0.80;0.50;;;18.00;1.40;;;20.28;37.97;96353.03;620520;222;42456;-78
2022/03/14 12:14:43;;;;;;;1.05;0.68;;;17.70;1.40;;;20.01;37.98;96360.28;647356;212;31494;-77
2022/03/14 12:17:26;;;;;;;0.70;0.50;;;19.20;1.40;;;20.85;37.13;96357.30;647779;216;31479;-76
2022/03/14 12:20:15;;;;;;;0.62;0.47;;;19.00;1.40;;;22.36;35.29;96351.47;642776;216;31415;-75
2022/03/14 12:22:57;;;;;;;0.90;0.77;;;20.80;1.40;;;24.50;32.41;96347.16;619835;222;34940;-76
2022/03/14 12:25:42;;;;;;;0.60;0.40;;;21.70;1.40;;;25.33;31.86;96346.88;647744;216;31516;-76
2022/03/14 12:28:31;;;;;;;0.70;0.50;;;22.40;1.40;;;25.20;31.59;96343.42;631537;221;31673;-75
2022/03/14 12:31:13;;;;;;;3.10;0.70;;;22.10;1.40;;;25.53;32.55;96334.19;645927;212;31524;-76
2022/03/14 12:35:52;;;;;;;1.07;0.70;;;22.00;1.40;;;26.34;30.10;96328.58;646808;216;32349;-77
2022/03/14 12:38:34;;;;;;;1.70;0.70;;;22.50;1.40;;;23.46;32.79;96332.03;648519;216;31510;-76
2022/03/14 12:41:24;;;;;;;0.80;0.60;;;21.30;1.40;;;24.05;32.16;96337.09;618761;222;42720;-75
2022/03/14 12:44:19;;;;;;;0.60;0.50;;;20.60;1.40;;;21.67;35.29;96351.38;646456;216;31496;-76
2022/03/14 12:47:06;;;;;;;1.20;0.90;;;18.80;1.40;;;22.26;34.79;96346.83;647633;216;32029;-76
2022/03/14 12:49:49;;;;;;;1.10;0.77;;;20.30;1.40;;;24.93;32.06;96339.28;647733;212;31630;-76
2022/03/14 12:52:34;;;;;;;1.00;0.90;;;21.00;1.40;;;24.27;31.60;96337.72;620158;226;32018;-75